createdAt,value
2019-01-05T00:02:58.335Z,5.40
2019-01-05T00:05:37.554Z,5.30
2019-01-05T00:08:10.782Z,5.40
2019-01-05T00:10:43.594Z,5.40
2019-01-05T00:13:13.830Z,5.40
2019-01-05T00:15:55.935Z,5.40
2019-01-05T00:18:26.498Z,5.30
2019-01-05T00:20:57.663Z,5.30
2019-01-05T00:23:28.542Z,5.30
2019-01-05T00:26:01.779Z,5.40
2019-01-05T00:28:32.394Z,5.40
2019-01-05T00:31:09.145Z,5.40
2019-01-05T00:33:49.569Z,5.40
2019-01-05T00:36:35.660Z,5.40
2019-01-05T00:39:13.565Z,5.30
2019-01-05T00:41:49.901Z,5.30
2019-01-05T00:44:27.041Z,5.30
2019-01-05T00:47:01.697Z,5.30
2019-01-05T00:49:33.754Z,5.40
2019-01-05T00:52:16.907Z,5.30
2019-01-05T00:55:07.714Z,5.30
2019-01-05T00:57:54.753Z,5.30
2019-01-05T01:00:30.659Z,5.20
2019-01-05T01:03:17.554Z,5.30
2019-01-05T01:05:53.962Z,5.40
2019-01-05T01:08:40.497Z,5.40
2019-01-05T01:11:10.994Z,5.40
2019-01-05T01:13:54.796Z,5.40
2019-01-05T01:16:37.268Z,5.50
2019-01-05T01:19:10.346Z,5.40
2019-01-05T01:21:55.736Z,5.40
2019-01-05T01:24:31.897Z,5.40
2019-01-05T01:27:05.641Z,5.40
2019-01-05T01:29:48.522Z,5.40
2019-01-05T01:32:24.759Z,5.40
2019-01-05T01:34:57.866Z,5.40
2019-01-05T01:37:47.333Z,5.40
2019-01-05T01:40:17.914Z,5.40
2019-01-05T01:42:54.012Z,5.40
2019-01-05T01:45:29.372Z,5.40
2019-01-05T01:48:18.244Z,5.40
2019-01-05T01:51:01.081Z,5.40
2019-01-05T01:53:41.442Z,5.40
2019-01-05T01:56:26.291Z,5.30
2019-01-05T01:59:15.337Z,5.30
2019-01-05T02:01:58.006Z,5.20
2019-01-05T02:04:31.966Z,5.20
2019-01-05T02:07:12.188Z,5.30
2019-01-05T02:09:47.238Z,5.30
2019-01-05T02:12:20.431Z,5.30
2019-01-05T02:15:11.420Z,5.30
2019-01-05T02:17:47.418Z,5.20
2019-01-05T02:20:48.066Z,5.20
2019-01-05T02:23:38.978Z,5.20
2019-01-05T02:26:15.283Z,5.20
2019-01-05T02:29:06.786Z,5.20
2019-01-05T02:31:56.360Z,5.30
2019-01-05T02:34:47.554Z,5.20
2019-01-05T02:37:54.833Z,5.10
2019-01-05T02:41:10.111Z,5.10
2019-01-05T02:43:55.240Z,5.20
2019-01-05T02:46:49.481Z,5.30
2019-01-05T02:49:48.269Z,5.30
2019-01-05T02:52:37.669Z,5.30
2019-01-05T02:55:19.563Z,5.30
2019-01-05T02:58:10.198Z,5.20
2019-01-05T03:01:21.264Z,5.30
2019-01-05T03:04:33.138Z,5.30
2019-01-05T03:07:15.323Z,5.30
2019-01-05T03:10:31.998Z,5.20
2019-01-05T03:13:33.186Z,5.30
2019-01-05T03:16:44.163Z,5.20
2019-01-05T03:19:32.164Z,5.20
2019-01-05T03:22:14.230Z,5.20
2019-01-05T03:25:31.179Z,5.20
2019-01-05T03:28:37.551Z,5.20
2019-01-05T03:31:31.984Z,5.20
2019-01-05T03:34:17.187Z,5.10
2019-01-05T03:37:28.007Z,5.10
2019-01-05T03:40:41.935Z,5.20
2019-01-05T03:43:38.860Z,5.20
2019-01-05T03:46:49.476Z,5.00
2019-01-05T03:49:55.845Z,5.10
2019-01-05T03:53:05.352Z,5.10
2019-01-05T03:55:50.346Z,5.20
2019-01-05T03:58:58.086Z,5.10
2019-01-05T04:01:59.773Z,5.20
2019-01-05T04:05:11.731Z,5.10
2019-01-05T04:08:21.119Z,5.00
2019-01-05T04:11:19.763Z,5.00
2019-01-05T04:14:09.528Z,5.00
2019-01-05T04:16:51.563Z,5.00
2019-01-05T04:19:45.610Z,5.00
2019-01-05T04:22:27.758Z,5.10
2019-01-05T04:25:15.952Z,5.00
2019-01-05T04:28:03.822Z,5.00
2019-01-05T04:30:51.656Z,5.00
2019-01-05T04:33:27.648Z,5.10
2019-01-05T04:36:38.611Z,5.00
2019-01-05T04:39:47.811Z,5.10
2019-01-05T04:42:23.803Z,5.00
2019-01-05T04:45:21.573Z,5.00
2019-01-05T04:48:13.845Z,5.00
2019-01-05T04:51:07.667Z,5.00
2019-01-05T04:54:14.822Z,4.90
2019-01-05T04:56:56.727Z,4.80
2019-01-05T04:59:58.401Z,4.80
2019-01-05T05:02:57.307Z,4.90
2019-01-05T05:05:52.948Z,4.80
2019-01-05T05:08:49.842Z,4.80
2019-01-05T05:12:02.031Z,4.70
2019-01-05T05:14:59.102Z,4.80
2019-01-05T05:18:14.959Z,4.80
2019-01-05T05:21:07.827Z,4.90
2019-01-05T05:24:04.856Z,4.90
2019-01-05T05:27:02.294Z,4.80
2019-01-05T05:29:44.108Z,4.80
2019-01-05T05:33:01.079Z,4.80
2019-01-05T05:36:16.502Z,4.80
2019-01-05T05:39:15.286Z,4.80
2019-01-05T05:42:18.789Z,4.70
2019-01-05T05:45:32.695Z,4.70
2019-01-05T05:48:46.418Z,4.60
2019-01-05T05:51:36.281Z,4.60
2019-01-05T05:54:33.414Z,4.50
2019-01-05T05:57:37.627Z,4.50
2019-01-05T06:00:31.879Z,4.60
2019-01-05T06:03:23.282Z,4.50
2019-01-05T06:06:40.380Z,4.50
2019-01-05T06:09:43.792Z,4.50
2019-01-05T06:12:40.998Z,4.60
2019-01-05T06:15:38.394Z,4.60
2019-01-05T06:19:01.254Z,4.60
2019-01-05T06:22:09.169Z,4.60
2019-01-05T06:25:15.540Z,4.50
2019-01-05T06:28:05.154Z,4.50
2019-01-05T06:30:53.549Z,4.50
2019-01-05T06:33:41.854Z,4.50
2019-01-05T06:36:33.114Z,4.60
2019-01-05T06:39:39.538Z,4.60
2019-01-05T06:42:46.382Z,4.60
2019-01-05T06:45:47.818Z,4.60
2019-01-05T06:48:41.631Z,4.60
2019-01-05T06:51:46.690Z,4.50
2019-01-05T06:54:38.865Z,4.50
2019-01-05T06:57:46.995Z,4.40
2019-01-05T07:00:36.573Z,4.40
2019-01-05T07:03:50.441Z,4.40
2019-01-05T07:06:43.416Z,4.40
2019-01-05T07:10:01.698Z,4.40
2019-01-05T07:12:49.986Z,4.40
2019-01-05T07:15:59.019Z,4.40
2019-01-05T07:18:57.461Z,4.50
2019-01-05T07:21:52.971Z,4.50
2019-01-05T07:24:45.271Z,4.60
2019-01-05T07:27:57.684Z,4.50
2019-01-05T07:31:11.162Z,4.40
2019-01-05T07:34:08.160Z,4.40
2019-01-05T07:36:56.230Z,4.40
2019-01-05T07:39:59.806Z,4.50
2019-01-05T07:42:58.321Z,4.40
2019-01-05T07:45:46.281Z,4.40
2019-01-05T07:48:52.650Z,4.40
2019-01-05T07:51:45.241Z,4.60
2019-01-05T07:55:00.770Z,4.60
2019-01-05T07:58:01.113Z,4.60
2019-01-05T08:01:09.027Z,4.60
2019-01-05T08:04:00.527Z,4.60
2019-01-05T08:06:57.966Z,4.60
2019-01-05T08:10:16.302Z,4.50
2019-01-05T08:13:17.753Z,4.60
2019-01-05T08:16:14.258Z,4.60
2019-01-05T08:19:33.120Z,4.60
2019-01-05T08:22:39.574Z,4.70
2019-01-05T08:25:40.356Z,4.60
2019-01-05T08:28:39.083Z,4.60
2019-01-05T08:31:35.138Z,4.50
2019-01-05T08:34:46.874Z,4.40
2019-01-05T08:37:53.087Z,4.60
2019-01-05T08:40:29.522Z,4.60
2019-01-05T08:43:38.914Z,4.60
2019-01-05T08:47:00.335Z,4.60
2019-01-05T08:49:45.514Z,4.70
2019-01-05T08:52:56.514Z,4.60
2019-01-05T08:55:56.095Z,4.70
2019-01-05T08:59:09.115Z,4.60
2019-01-05T09:02:13.723Z,4.50
2019-01-05T09:05:05.278Z,4.40
2019-01-05T09:08:06.820Z,4.30
2019-01-05T09:11:08.057Z,4.40
2019-01-05T09:14:19.011Z,4.30
2019-01-05T09:17:19.404Z,4.30
2019-01-05T09:20:20.204Z,4.30
2019-01-05T09:22:53.569Z,4.40
2019-01-05T09:25:59.769Z,4.50
2019-01-05T09:29:06.286Z,4.50
2019-01-05T09:32:00.874Z,4.60
2019-01-05T09:35:14.790Z,4.60
2019-01-05T09:38:06.045Z,4.50
2019-01-05T09:41:05.714Z,4.50
2019-01-05T09:43:47.569Z,4.50
2019-01-05T09:47:05.690Z,4.40
2019-01-05T09:49:55.525Z,4.50
2019-01-05T09:53:16.602Z,4.50
2019-01-05T09:56:12.466Z,4.60
2019-01-05T09:59:11.015Z,4.50
2019-01-05T10:01:52.401Z,4.40
2019-01-05T10:04:46.815Z,4.40
2019-01-05T10:07:47.730Z,4.40
2019-01-05T10:10:50.442Z,4.40
2019-01-05T10:14:12.272Z,4.40
2019-01-05T10:17:12.352Z,4.50
2019-01-05T10:20:21.834Z,4.40
2019-01-05T10:23:10.344Z,4.40
2019-01-05T10:26:22.658Z,4.20
2019-01-05T10:28:58.691Z,4.30
2019-01-05T10:32:09.539Z,4.40
2019-01-05T10:34:57.038Z,4.50
2019-01-05T10:37:41.908Z,4.40
2019-01-05T10:40:30.063Z,4.40
2019-01-05T10:43:28.847Z,4.40
2019-01-05T10:46:13.710Z,4.50
2019-01-05T10:48:52.370Z,4.50
2019-01-05T10:52:04.664Z,4.50
2019-01-05T10:54:58.514Z,4.50
2019-01-05T10:57:58.871Z,4.50
2019-01-05T11:01:05.035Z,4.50
2019-01-05T11:04:15.298Z,4.50
2019-01-05T11:07:09.395Z,4.30
2019-01-05T11:10:14.448Z,4.30
2019-01-05T11:12:50.595Z,4.40
2019-01-05T11:16:01.658Z,4.40
2019-01-05T11:18:59.923Z,4.50
2019-01-05T11:21:47.547Z,4.50
2019-01-05T11:24:47.814Z,4.50
2019-01-05T11:27:43.707Z,4.40
2019-01-05T11:30:46.529Z,4.50
2019-01-05T11:33:38.801Z,4.40
2019-01-05T11:36:34.766Z,4.40
2019-01-05T11:39:29.158Z,4.40
2019-01-05T11:42:34.138Z,4.40
2019-01-05T11:45:35.583Z,4.40
2019-01-05T11:48:42.025Z,4.40
2019-01-05T11:51:34.827Z,4.40
2019-01-05T11:54:46.709Z,4.40
2019-01-05T11:57:56.654Z,4.40
2019-01-05T12:00:55.269Z,4.40
2019-01-05T12:03:52.286Z,4.40
2019-01-05T12:06:42.237Z,4.40
2019-01-05T12:09:44.232Z,4.50
2019-01-05T12:12:52.083Z,4.40
2019-01-05T12:15:55.293Z,4.40
2019-01-05T12:18:40.142Z,4.40
2019-01-05T12:21:54.627Z,4.50
2019-01-05T12:25:09.798Z,4.50
2019-01-05T12:28:01.062Z,4.50
2019-01-05T12:30:53.724Z,4.40
2019-01-05T12:34:00.168Z,4.50
2019-01-05T12:36:51.107Z,4.50
2019-01-05T12:39:39.398Z,4.50
2019-01-05T12:42:18.218Z,4.50
2019-01-05T12:45:18.318Z,4.60
2019-01-05T12:48:03.419Z,4.60
2019-01-05T12:51:00.599Z,4.60
2019-01-05T12:54:19.656Z,4.70
2019-01-05T12:57:26.091Z,4.70
2019-01-05T13:00:33.407Z,4.70
2019-01-05T13:03:22.938Z,4.60
2019-01-05T13:06:04.870Z,4.70
2019-01-05T13:08:55.800Z,4.60
2019-01-05T13:11:49.766Z,4.60
2019-01-05T13:14:43.952Z,4.70
2019-01-05T13:17:38.470Z,4.60
2019-01-05T13:20:43.691Z,4.60
2019-01-05T13:23:49.621Z,4.70
2019-01-05T13:26:40.938Z,4.60
2019-01-05T13:29:42.906Z,4.60
2019-01-05T13:32:41.872Z,4.60
2019-01-05T13:35:40.286Z,4.60
2019-01-05T13:38:48.584Z,4.60
2019-01-05T13:41:57.837Z,4.70
2019-01-05T13:45:02.386Z,4.80
2019-01-05T13:47:54.884Z,4.70
2019-01-05T13:51:18.007Z,4.70
2019-01-05T13:54:06.042Z,4.80
2019-01-05T13:56:36.876Z,4.70
2019-01-05T13:59:14.249Z,4.80
2019-01-05T14:01:56.923Z,4.80
2019-01-05T14:04:39.316Z,4.90
2019-01-05T14:07:26.328Z,4.90
2019-01-05T14:10:02.409Z,5.00
2019-01-05T14:12:38.622Z,4.90
2019-01-05T14:15:27.185Z,4.90
2019-01-05T14:18:00.375Z,5.00
2019-01-05T14:20:42.421Z,5.00
2019-01-05T14:23:21.525Z,5.00
2019-01-05T14:26:08.117Z,5.00
2019-01-05T14:28:38.495Z,5.00
2019-01-05T14:31:18.298Z,5.00
2019-01-05T14:33:53.981Z,5.10
2019-01-05T14:36:40.273Z,5.00
2019-01-05T14:39:10.563Z,5.00
2019-01-05T14:41:56.792Z,5.00
2019-01-05T14:44:30.138Z,5.10
2019-01-05T14:47:22.631Z,5.10
2019-01-05T14:49:52.857Z,5.20
2019-01-05T14:52:39.480Z,5.20
2019-01-05T14:55:26.151Z,5.30
2019-01-05T14:57:56.462Z,5.20
2019-01-05T15:00:32.558Z,5.20
2019-01-05T15:03:05.302Z,5.30
2019-01-05T15:05:51.654Z,5.20
2019-01-05T15:08:27.785Z,5.20
2019-01-05T15:11:03.899Z,5.30
2019-01-05T15:13:50.500Z,5.30
2019-01-05T15:16:36.961Z,5.30
2019-01-05T15:19:25.719Z,5.30
2019-01-05T15:21:58.704Z,5.30
2019-01-05T15:24:37.854Z,5.30
2019-01-05T15:27:25.802Z,5.30
2019-01-05T15:30:12.164Z,5.30
2019-01-05T15:33:00.633Z,5.30
2019-01-05T15:35:33.464Z,5.30
2019-01-05T15:38:03.785Z,5.40
2019-01-05T15:40:50.350Z,5.40
2019-01-05T15:43:26.430Z,5.40
2019-01-05T15:46:12.631Z,5.50
2019-01-05T15:48:51.390Z,5.50
2019-01-05T15:51:38.179Z,5.40
2019-01-05T15:54:17.191Z,5.30
2019-01-05T15:56:52.997Z,5.30
2019-01-05T15:59:23.202Z,5.30
2019-01-05T16:01:59.243Z,5.40
2019-01-05T16:04:47.759Z,5.40
2019-01-05T16:07:36.422Z,5.50
2019-01-05T16:10:24.644Z,5.50
2019-01-05T16:13:11.183Z,5.50
2019-01-05T16:15:50.399Z,5.50
2019-01-05T16:18:23.430Z,5.60
2019-01-05T16:20:59.487Z,5.60
2019-01-05T16:24:05.105Z,5.50
2019-01-05T16:26:51.523Z,5.60
2019-01-05T16:29:24.428Z,5.50
2019-01-05T16:32:03.619Z,5.50
2019-01-05T16:34:51.715Z,5.50
2019-01-05T16:37:24.626Z,5.60
2019-01-05T16:40:00.425Z,5.60
2019-01-05T16:42:39.327Z,5.50
2019-01-05T16:45:09.590Z,5.50
2019-01-05T16:47:56.241Z,5.60
2019-01-05T16:50:32.204Z,5.60
2019-01-05T16:53:11.119Z,5.60
2019-01-05T16:55:53.279Z,5.60
2019-01-05T16:58:41.703Z,5.70
2019-01-05T17:01:14.638Z,5.60
2019-01-05T17:03:47.577Z,5.60
2019-01-05T17:06:32.798Z,5.70
2019-01-05T17:09:19.438Z,5.60
2019-01-05T17:11:55.891Z,5.60
2019-01-05T17:14:42.311Z,5.60
2019-01-05T17:17:18.651Z,5.70
2019-01-05T17:19:57.406Z,5.70
2019-01-05T17:22:28.351Z,5.60
2019-01-05T17:25:07.962Z,5.70
2019-01-05T17:27:50.739Z,5.70
2019-01-05T17:30:29.900Z,5.70
2019-01-05T17:33:16.738Z,5.70
2019-01-05T17:36:04.384Z,5.60
2019-01-05T17:38:40.150Z,5.70
2019-01-05T17:41:12.818Z,5.70
2019-01-05T17:43:58.220Z,5.60
2019-01-05T17:46:44.971Z,5.70
2019-01-05T17:49:34.562Z,5.70
2019-01-05T17:52:21.162Z,5.70
2019-01-05T17:55:07.694Z,5.70
2019-01-05T17:57:37.994Z,5.80
2019-01-05T18:00:09.984Z,5.80
2019-01-05T18:02:56.351Z,5.80
2019-01-05T18:05:42.718Z,5.90
2019-01-05T18:08:29.450Z,5.80
2019-01-05T18:11:08.425Z,5.80
2019-01-05T18:13:39.463Z,5.80
2019-01-05T18:16:25.677Z,5.80
2019-01-05T18:19:12.440Z,5.90
2019-01-05T18:21:42.627Z,5.90
2019-01-05T18:24:12.936Z,5.90
2019-01-05T18:26:59.565Z,5.90
2019-01-05T18:29:29.783Z,6.00
2019-01-05T18:32:09.031Z,6.00
2019-01-05T18:34:39.495Z,6.00
2019-01-05T18:37:27.658Z,6.00
2019-01-05T18:40:14.062Z,6.00
2019-01-05T18:43:02.258Z,6.10
2019-01-05T18:45:35.528Z,6.00
2019-01-05T18:48:17.246Z,6.00
2019-01-05T18:50:59.403Z,6.00
2019-01-05T18:53:35.445Z,6.00
2019-01-05T18:56:11.660Z,6.00
2019-01-05T18:58:47.902Z,6.10
2019-01-05T19:01:20.830Z,6.10
2019-01-05T19:03:51.047Z,6.10
2019-01-05T19:06:37.645Z,6.10
2019-01-05T19:09:25.383Z,6.10
2019-01-05T19:12:12.038Z,6.10
2019-01-05T19:14:45.007Z,6.00
2019-01-05T19:17:38.779Z,6.00
2019-01-05T19:20:09.847Z,6.00
2019-01-05T19:22:56.600Z,6.00
2019-01-05T19:25:26.862Z,6.00
2019-01-05T19:28:14.167Z,6.10
2019-01-05T19:30:44.532Z,6.10
2019-01-05T19:33:23.825Z,6.20
2019-01-05T19:36:02.837Z,6.20
2019-01-05T19:38:38.885Z,6.20
2019-01-05T19:41:25.415Z,6.10
2019-01-05T19:44:10.827Z,6.20
2019-01-05T19:46:52.950Z,6.30
2019-01-05T19:49:39.673Z,6.30
2019-01-05T19:52:18.870Z,6.20
2019-01-05T19:55:05.171Z,6.20
2019-01-05T19:57:35.426Z,6.20
2019-01-05T20:00:24.458Z,6.20
2019-01-05T20:03:11.065Z,6.20
2019-01-05T20:05:57.592Z,6.20
2019-01-05T20:08:43.679Z,6.20
2019-01-05T20:11:30.234Z,6.20
2019-01-05T20:14:16.678Z,6.20
2019-01-05T20:16:52.834Z,6.20
2019-01-05T20:19:54.255Z,6.10
2019-01-05T20:22:30.487Z,6.20
2019-01-05T20:25:16.578Z,6.20
2019-01-05T20:27:46.852Z,6.20
2019-01-05T20:30:17.048Z,6.30
2019-01-05T20:32:47.590Z,6.30
2019-01-05T20:35:18.016Z,6.30
2019-01-05T20:37:48.280Z,6.30
2019-01-05T20:40:27.678Z,6.30
2019-01-05T20:43:14.526Z,6.40
2019-01-05T20:45:59.802Z,6.30
2019-01-05T20:48:46.227Z,6.20
2019-01-05T20:51:22.219Z,6.30
2019-01-05T20:53:52.564Z,6.20
2019-01-05T20:56:22.762Z,6.20
2019-01-05T20:59:11.553Z,6.20
2019-01-05T21:01:41.759Z,6.30
2019-01-05T21:04:17.869Z,6.20
2019-01-05T21:06:48.183Z,6.20
2019-01-05T21:09:27.519Z,6.30
2019-01-05T21:12:09.882Z,6.30
2019-01-05T21:14:46.298Z,6.30
2019-01-05T21:17:22.794Z,6.30
2019-01-05T21:20:09.319Z,6.30
2019-01-05T21:22:45.642Z,6.40
2019-01-05T21:25:32.249Z,6.30
2019-01-05T21:28:14.628Z,6.30
2019-01-05T21:30:44.855Z,6.30
2019-01-05T21:33:25.807Z,6.30
2019-01-05T21:35:55.652Z,6.40
2019-01-05T21:38:43.612Z,6.40
2019-01-05T21:41:22.485Z,6.40
2019-01-05T21:44:01.466Z,6.40
2019-01-05T21:46:37.771Z,6.40
2019-01-05T21:49:26.010Z,6.40
2019-01-05T21:52:12.549Z,6.40
2019-01-05T21:55:18.374Z,6.30
2019-01-05T21:58:05.015Z,6.30
2019-01-05T22:00:35.389Z,6.40
2019-01-05T22:03:11.219Z,6.40
2019-01-05T22:05:58.302Z,6.40
2019-01-05T22:08:46.740Z,6.40
2019-01-05T22:11:17.075Z,6.30
2019-01-05T22:13:47.465Z,6.30
2019-01-05T22:16:33.982Z,6.30
2019-01-05T22:19:21.165Z,6.30
2019-01-05T22:21:51.519Z,6.30
2019-01-05T22:24:27.692Z,6.40
2019-01-05T22:27:14.855Z,6.40
2019-01-05T22:29:45.074Z,6.30
2019-01-05T22:32:21.113Z,6.40
2019-01-05T22:35:07.489Z,6.40
2019-01-05T22:37:54.249Z,6.40
2019-01-05T22:40:30.481Z,6.30
2019-01-05T22:43:00.690Z,6.30
2019-01-05T22:45:33.498Z,6.30
2019-01-05T22:48:09.535Z,6.30
2019-01-05T22:50:58.222Z,6.30
2019-01-05T22:53:43.270Z,6.30
2019-01-05T22:56:29.420Z,6.30
2019-01-05T22:59:02.308Z,6.30
2019-01-05T23:01:44.387Z,6.30
2019-01-05T23:04:20.607Z,6.30
2019-01-05T23:06:53.517Z,6.30
2019-01-05T23:09:39.915Z,6.30
2019-01-05T23:12:13.266Z,6.30
2019-01-05T23:14:49.375Z,6.30
2019-01-05T23:17:34.789Z,6.40
2019-01-05T23:20:22.045Z,6.40
2019-01-05T23:23:01.348Z,6.40
2019-01-05T23:25:31.506Z,6.30
2019-01-05T23:28:02.493Z,6.30
2019-01-05T23:30:38.294Z,6.30
2019-01-05T23:33:08.561Z,6.40
2019-01-05T23:35:38.795Z,6.40
2019-01-05T23:38:11.475Z,6.40
2019-01-05T23:40:45.610Z,6.40
2019-01-05T23:43:15.743Z,6.30
2019-01-05T23:45:45.963Z,6.30
2019-01-05T23:48:16.153Z,6.30
2019-01-05T23:50:52.358Z,6.30
2019-01-05T23:53:37.772Z,6.30
2019-01-05T23:56:11.093Z,6.30
2019-01-05T23:58:47.066Z,6.30
